Time;durP1;ratioP1;P1;durP2;ratioP2;P2;SDS_P1;SDS_P2;PMS_P1;PMS_P2;Temp;Humidity;BMP_temperature;BMP_pressure;BME280_temperature;BME280_humidity;BME280_pressure;Samples;Min_cycle;Max_cycle;Signal;HPM_P1;HPM_P2
2023/04/28 00:01:09;;;;;;;7.05;4.07;;;6.50;99.90;;;;;;5016799;28;20093;-74
2023/04/28 00:03:36;;;;;;;6.63;3.78;;;6.30;99.90;;;;;;5016736;28;20050;-74
2023/04/28 00:06:02;;;;;;;6.35;3.72;;;6.20;99.90;;;;;;5015754;28;20053;-73
2023/04/28 00:08:28;;;;;;;6.30;4.13;;;6.30;99.90;;;;;;5015442;28;20445;-74
2023/04/28 00:10:53;;;;;;;5.93;3.78;;;6.40;99.90;;;;;;5016474;28;20041;-73
2023/04/28 00:13:19;;;;;;;5.15;3.58;;;6.30;99.90;;;;;;5016633;28;20042;-73
2023/04/28 00:15:45;;;;;;;7.43;3.85;;;6.30;99.90;;;;;;5016568;28;20490;-73
2023/04/28 00:18:10;;;;;;;6.57;3.65;;;6.30;99.90;;;;;;4999981;28;20373;-73
2023/04/28 00:20:36;;;;;;;5.90;3.85;;;6.50;99.90;;;;;;5016409;28;20037;-73
2023/04/28 00:23:02;;;;;;;5.93;3.60;;;6.50;99.90;;;;;;5016726;28;20137;-74
2023/04/28 00:25:27;;;;;;;6.22;3.40;;;6.30;99.90;;;;;;5016352;28;20133;-73
2023/04/28 00:27:53;;;;;;;7.32;3.78;;;6.40;99.90;;;;;;5016245;28;20100;-73
2023/04/28 00:30:19;;;;;;;5.10;3.38;;;6.20;99.90;;;;;;5016252;28;20046;-73
2023/04/28 00:32:45;;;;;;;6.30;3.65;;;6.30;99.90;;;;;;5016193;28;20046;-73
2023/04/28 00:35:10;;;;;;;7.28;4.15;;;6.40;99.90;;;;;;5016068;28;20048;-73
2023/04/28 00:37:37;;;;;;;6.10;4.18;;;6.40;99.90;;;;;;5015129;28;20050;-73
2023/04/28 00:40:03;;;;;;;6.80;3.67;;;6.30;99.90;;;;;;5015990;28;20049;-73
2023/04/28 00:42:29;;;;;;;5.95;3.35;;;6.20;99.90;;;;;;5016791;28;20049;-73
2023/04/28 00:44:55;;;;;;;6.13;3.13;;;6.30;99.90;;;;;;5015803;28;20062;-72
2023/04/28 00:47:21;;;;;;;6.63;3.88;;;6.50;99.90;;;;;;5015758;28;20136;-73
2023/04/28 00:49:48;;;;;;;5.70;3.35;;;6.20;99.90;;;;;;5016440;28;20092;-73
2023/04/28 00:52:15;;;;;;;6.88;3.92;;;6.10;99.90;;;;;;5014628;28;20149;-72
2023/04/28 00:54:43;;;;;;;8.48;4.20;;;6.40;99.90;;;;;;5015873;28;20050;-73
2023/04/28 00:57:09;;;;;;;6.95;4.22;;;6.40;99.90;;;;;;5015712;28;20050;-72
2023/04/28 00:59:35;;;;;;;6.57;3.85;;;6.30;99.90;;;;;;5015644;28;20363;-72
2023/04/28 01:02:02;;;;;;;7.43;3.90;;;6.30;99.90;;;;;;5015624;28;20155;-72
2023/04/28 01:04:29;;;;;;;8.48;4.15;;;6.40;99.90;;;;;;5015822;28;20042;-72
2023/04/28 01:06:55;;;;;;;5.93;4.10;;;6.50;99.90;;;;;;5014598;28;20089;-72
2023/04/28 01:09:21;;;;;;;7.25;4.22;;;6.20;99.90;;;;;;5014354;28;20046;-72
2023/04/28 01:11:47;;;;;;;7.82;4.47;;;6.40;99.90;;;;;;4998149;28;20046;-73
2023/04/28 01:14:13;;;;;;;7.45;4.05;;;6.20;99.90;;;;;;5014240;28;20050;-73
2023/04/28 01:16:39;;;;;;;9.05;4.18;;;6.00;99.90;;;;;;5014440;28;20077;-73
2023/04/28 01:19:18;;;;;;;6.75;4.38;;;6.20;99.90;;;;;;5014370;28;20050;-73
2023/04/28 01:21:44;;;;;;;7.70;4.63;;;6.10;99.90;;;;;;5015785;28;20085;-73
2023/04/28 01:24:09;;;;;;;7.00;4.72;;;6.40;99.90;;;;;;5015184;28;20127;-73
2023/04/28 01:26:35;;;;;;;6.95;4.45;;;6.10;99.90;;;;;;5014875;28;20093;-74
2023/04/28 01:29:01;;;;;;;6.25;4.22;;;6.10;99.90;;;;;;5013956;28;20057;-73
2023/04/28 01:31:27;;;;;;;6.85;4.55;;;6.30;99.90;;;;;;5015083;28;20046;-74
2023/04/28 01:33:52;;;;;;;9.75;4.70;;;6.50;99.90;;;;;;5015039;28;20045;-73
2023/04/28 01:36:18;;;;;;;8.95;5.03;;;6.80;99.90;;;;;;5015005;28;20081;-73
2023/04/28 01:38:43;;;;;;;7.70;4.72;;;6.50;99.90;;;;;;5013940;28;20042;-73
2023/04/28 01:41:09;;;;;;;9.73;5.00;;;6.10;99.90;;;;;;5014033;28;20041;-73
2023/04/28 01:43:35;;;;;;;7.97;5.07;;;6.20;99.90;;;;;;5014730;28;20406;-74
2023/04/28 01:46:00;;;;;;;8.98;5.25;;;6.20;99.90;;;;;;4997765;28;20052;-74
2023/04/28 01:48:26;;;;;;;9.88;5.35;;;6.20;99.90;;;;;;5014740;28;20057;-73
2023/04/28 01:50:52;;;;;;;9.95;5.05;;;6.20;99.90;;;;;;5014622;28;20111;-73
2023/04/28 01:53:19;;;;;;;7.70;5.35;;;6.10;99.90;;;;;;5014389;28;20532;-74
2023/04/28 01:55:46;;;;;;;9.45;5.45;;;6.40;99.90;;;;;;4996817;28;20054;-73
2023/04/28 01:58:12;;;;;;;8.82;5.68;;;6.80;99.90;;;;;;5013881;28;20054;-74
2023/04/28 02:00:38;;;;;;;10.50;6.28;;;6.00;99.90;;;;;;5014452;28;20118;-74
2023/04/28 02:03:03;;;;;;;10.35;6.03;;;6.00;99.90;;;;;;5014559;28;20058;-73
2023/04/28 02:05:29;;;;;;;10.00;6.10;;;6.30;99.90;;;;;;5013863;28;20046;-73
2023/04/28 02:07:55;;;;;;;10.65;6.53;;;6.20;99.90;;;;;;5014377;28;20057;-73
2023/04/28 02:10:20;;;;;;;13.57;6.40;;;6.40;99.90;;;;;;5014394;28;20046;-73
2023/04/28 02:12:46;;;;;;;10.77;5.75;;;6.20;99.90;;;;;;5013222;28;20049;-74
2023/04/28 02:15:12;;;;;;;10.50;6.35;;;6.10;99.90;;;;;;5014331;28;20120;-73
2023/04/28 02:17:38;;;;;;;11.38;6.43;;;6.10;99.90;;;;;;5014348;28;20054;-72
2023/04/28 02:20:05;;;;;;;11.13;5.88;;;6.10;99.90;;;;;;5014334;28;20042;-73
2023/04/28 02:22:30;;;;;;;12.85;6.97;;;6.00;99.90;;;;;;5014199;28;20371;-73
2023/04/28 02:24:56;;;;;;;11.52;6.47;;;6.00;99.90;;;;;;5014495;28;20108;-72
2023/04/28 02:27:22;;;;;;;10.35;6.75;;;6.00;99.90;;;;;;5013103;28;20050;-73
2023/04/28 02:29:48;;;;;;;12.40;6.47;;;6.10;99.90;;;;;;5014109;28;20046;-72
2023/04/28 02:32:14;;;;;;;12.02;7.35;;;5.90;99.90;;;;;;5012840;28;20106;-73
2023/04/28 02:34:39;;;;;;;13.75;7.22;;;6.20;99.90;;;;;;5012981;28;20045;-73
2023/04/28 02:37:05;;;;;;;11.07;6.95;;;6.20;99.90;;;;;;5013229;28;20053;-73
2023/04/28 02:39:31;;;;;;;11.45;7.15;;;6.10;99.90;;;;;;5014603;28;20500;-73
2023/04/28 02:41:57;;;;;;;14.38;6.90;;;5.90;99.90;;;;;;5014000;28;20053;-73
2023/04/28 02:44:23;;;;;;;16.27;7.57;;;6.30;99.90;;;;;;5013939;28;20045;-73
2023/04/28 02:46:49;;;;;;;12.00;7.57;;;6.10;99.90;;;;;;5013989;28;20042;-73
2023/04/28 02:49:15;;;;;;;13.00;7.88;;;6.50;99.90;;;;;;5013906;28;20371;-73
2023/04/28 02:51:40;;;;;;;13.45;7.03;;;6.90;99.90;;;;;;5014125;28;20080;-73
2023/04/28 02:54:06;;;;;;;14.77;8.48;;;6.20;99.90;;;;;;5014587;28;20050;-73
2023/04/28 02:56:33;;;;;;;15.57;8.32;;;6.10;99.90;;;;;;5014373;28;20049;-73
2023/04/28 02:58:59;;;;;;;15.32;8.10;;;6.20;99.90;;;;;;5013776;28;20045;-72
2023/04/28 03:01:24;;;;;;;17.52;8.43;;;6.30;99.90;;;;;;5014071;28;20046;-73
2023/04/28 03:03:50;;;;;;;12.73;8.30;;;5.90;99.90;;;;;;5012813;28;20120;-72
2023/04/28 03:06:16;;;;;;;13.98;8.95;;;6.20;99.90;;;;;;5012455;28;20131;-73
2023/04/28 03:08:42;;;;;;;16.30;8.65;;;6.40;99.90;;;;;;5013696;28;20092;-72
2023/04/28 03:11:07;;;;;;;16.05;9.85;;;6.10;99.90;;;;;;5013713;28;20482;-73
2023/04/28 03:13:34;;;;;;;14.95;9.07;;;6.20;99.90;;;;;;5017906;28;20053;-73
2023/04/28 03:16:00;;;;;;;16.45;9.95;;;6.00;99.90;;;;;;5016400;28;20054;-72
2023/04/28 03:18:26;;;;;;;16.95;9.43;;;6.30;99.90;;;;;;5017193;28;20101;-73
2023/04/28 03:20:51;;;;;;;15.50;8.88;;;6.00;99.90;;;;;;5017487;28;20053;-73
2023/04/28 03:23:17;;;;;;;17.58;9.52;;;6.10;99.90;;;;;;5017631;28;20093;-73
2023/04/28 03:25:43;;;;;;;16.52;9.65;;;6.10;99.90;;;;;;5016519;28;20053;-73
2023/04/28 03:28:09;;;;;;;16.52;9.15;;;6.20;99.90;;;;;;5017437;28;20053;-72
2023/04/28 03:30:35;;;;;;;18.83;9.95;;;6.00;99.90;;;;;;5017218;28;20075;-72
2023/04/28 03:33:01;;;;;;;18.08;9.60;;;6.20;99.90;;;;;;5017259;28;20041;-73
2023/04/28 03:35:26;;;;;;;19.33;10.15;;;6.50;99.90;;;;;;5016286;28;20140;-74
2023/04/28 03:37:52;;;;;;;14.82;9.25;;;6.20;99.90;;;;;;5017256;28;20196;-72
2023/04/28 03:40:18;;;;;;;15.25;9.18;;;6.10;99.90;;;;;;5017300;28;20046;-73
2023/04/28 03:42:44;;;;;;;14.07;8.57;;;6.30;99.90;;;;;;5017122;28;20067;-73
2023/04/28 03:45:10;;;;;;;17.92;9.13;;;6.30;99.90;;;;;;5017087;28;20103;-73
2023/04/28 03:47:35;;;;;;;14.70;8.70;;;6.10;99.90;;;;;;5016719;28;20486;-73
2023/04/28 03:50:01;;;;;;;14.50;8.50;;;6.00;99.90;;;;;;5015769;28;20056;-72
2023/04/28 03:52:27;;;;;;;16.17;8.93;;;6.20;99.90;;;;;;5017418;28;20054;-72
2023/04/28 03:54:53;;;;;;;13.50;8.20;;;5.90;99.90;;;;;;4999410;28;20397;-73
2023/04/28 03:57:19;;;;;;;19.80;9.38;;;5.70;99.90;;;;;;5016899;28;20038;-73
2023/04/28 03:59:44;;;;;;;16.40;8.23;;;6.50;99.90;;;;;;5017599;28;20093;-73
2023/04/28 04:02:10;;;;;;;14.40;8.88;;;6.00;99.90;;;;;;5015622;28;20045;-73
2023/04/28 04:04:36;;;;;;;13.38;8.20;;;6.30;99.90;;;;;;5017238;28;20081;-74
2023/04/28 04:07:02;;;;;;;16.15;9.00;;;6.30;99.90;;;;;;5016697;28;20049;-73
2023/04/28 04:09:28;;;;;;;13.38;7.90;;;6.20;99.90;;;;;;5015366;28;20394;-73
2023/04/28 04:11:54;;;;;;;14.20;7.65;;;5.90;99.90;;;;;;5016612;28;20041;-73
2023/04/28 04:14:20;;;;;;;13.50;7.40;;;5.90;99.90;;;;;;5016412;28;20042;-72
2023/04/28 04:16:46;;;;;;;16.17;8.43;;;6.30;99.90;;;;;;5016502;28;20053;-73
2023/04/28 04:19:12;;;;;;;13.85;7.65;;;6.20;99.90;;;;;;5015233;28;20090;-72
2023/04/28 04:21:38;;;;;;;13.02;7.80;;;6.40;99.90;;;;;;5016211;28;20092;-74
2023/04/28 04:24:04;;;;;;;14.90;7.50;;;6.40;99.90;;;;;;5015623;28;20053;-73
2023/04/28 04:26:29;;;;;;;12.57;7.32;;;6.00;99.90;;;;;;5016318;28;20045;-73
2023/04/28 04:28:55;;;;;;;12.38;7.00;;;6.10;99.90;;;;;;5015192;28;20040;-73
2023/04/28 04:31:21;;;;;;;13.63;8.00;;;6.10;99.90;;;;;;5016069;28;20192;-73
2023/04/28 04:33:47;;;;;;;13.50;7.72;;;6.60;99.90;;;;;;5016137;28;20042;-73
2023/04/28 04:36:13;;;;;;;14.80;7.45;;;6.00;99.90;;;;;;5014878;28;20046;-74
2023/04/28 04:38:39;;;;;;;14.48;6.97;;;6.30;99.90;;;;;;5015002;28;20045;-73
2023/04/28 04:41:05;;;;;;;12.35;7.28;;;6.40;99.90;;;;;;5015044;28;20046;-73
2023/04/28 04:43:30;;;;;;;14.93;7.78;;;5.90;99.90;;;;;;5014777;28;20054;-74
2023/04/28 04:45:56;;;;;;;11.75;7.00;;;6.00;99.90;;;;;;4999441;28;20136;-73
2023/04/28 04:48:22;;;;;;;10.63;6.47;;;6.30;99.90;;;;;;5016347;28;20406;-74
2023/04/28 04:50:48;;;;;;;14.63;6.70;;;6.30;99.90;;;;;;5015847;28;20062;-72
2023/04/28 04:53:14;;;;;;;9.77;6.85;;;6.10;99.90;;;;;;5015943;28;20065;-73
2023/04/28 04:55:40;;;;;;;12.27;6.63;;;6.30;99.90;;;;;;5015748;28;20053;-73
2023/04/28 04:58:06;;;;;;;11.95;6.75;;;6.10;99.90;;;;;;5015624;28;20042;-73
2023/04/28 05:00:32;;;;;;;11.88;6.68;;;6.50;99.90;;;;;;5014603;28;20064;-73
2023/04/28 05:02:58;;;;;;;10.32;6.40;;;6.40;99.90;;;;;;5015822;28;20458;-73
2023/04/28 05:05:23;;;;;;;12.15;7.38;;;6.30;99.90;;;;;;5014933;28;20046;-73
2023/04/28 05:07:50;;;;;;;10.73;5.97;;;6.20;99.90;;;;;;5015783;28;20052;-73
2023/04/28 05:10:15;;;;;;;9.38;6.07;;;6.40;99.90;;;;;;5015373;28;20082;-73
2023/04/28 05:12:43;;;;;;;9.68;6.03;;;6.30;99.90;;;;;;5015510;28;20391;-73
2023/04/28 05:15:09;;;;;;;11.13;5.88;;;6.60;99.90;;;;;;5015424;28;20054;-73
2023/04/28 05:17:35;;;;;;;12.45;6.95;;;6.30;99.90;;;;;;5015335;28;20042;-73
2023/04/28 05:20:02;;;;;;;11.73;6.45;;;6.60;99.90;;;;;;5013758;28;20532;-74
2023/04/28 05:22:29;;;;;;;11.68;7.18;;;6.60;99.90;;;;;;4998083;28;20434;-73
2023/04/28 05:24:55;;;;;;;11.43;5.80;;;6.40;99.90;;;;;;5015493;28;20102;-73
2023/04/28 05:27:21;;;;;;;13.18;7.10;;;6.30;99.90;;;;;;5013949;28;20126;-73
2023/04/28 05:29:46;;;;;;;9.70;6.10;;;6.70;99.90;;;;;;5013908;28;20081;-73
2023/04/28 05:32:12;;;;;;;8.73;5.63;;;6.30;99.90;;;;;;5014695;28;20050;-73
2023/04/28 05:34:38;;;;;;;12.65;6.18;;;6.30;99.90;;;;;;5015351;28;20436;-73
2023/04/28 05:37:03;;;;;;;13.15;6.05;;;6.40;99.90;;;;;;5014474;28;20533;-73
2023/04/28 05:39:29;;;;;;;10.15;6.68;;;6.70;99.90;;;;;;5014845;28;20042;-75
2023/04/28 05:41:57;;;;;;;10.05;6.68;;;6.50;99.90;;;;;;5014883;28;20046;-74
2023/04/28 05:44:23;;;;;;;10.05;6.43;;;6.70;99.90;;;;;;4997893;28;20064;-74
2023/04/28 05:46:48;;;;;;;12.63;6.38;;;6.40;99.90;;;;;;5014590;28;20050;-74
2023/04/28 05:49:14;;;;;;;11.90;6.18;;;6.70;99.90;;;;;;5014014;28;20541;-74
2023/04/28 05:51:40;;;;;;;11.02;6.32;;;6.40;99.90;;;;;;5014553;28;20054;-74
2023/04/28 05:54:06;;;;;;;12.95;6.55;;;6.80;99.90;;;;;;5014641;28;20394;-74
2023/04/28 05:56:32;;;;;;;10.43;5.88;;;6.50;99.90;;;;;;4996971;28;20050;-74
2023/04/28 05:58:59;;;;;;;10.05;6.82;;;6.70;99.90;;;;;;5013382;28;20046;-74
2023/04/28 06:01:25;;;;;;;9.63;6.05;;;6.70;99.90;;;;;;5014531;28;20437;-74
2023/04/28 06:03:52;;;;;;;11.48;6.15;;;6.70;99.90;;;;;;5013479;28;20068;-74
2023/04/28 06:06:18;;;;;;;11.02;6.88;;;6.50;99.90;;;;;;5014444;28;20050;-74
2023/04/28 06:08:45;;;;;;;9.57;5.47;;;6.80;99.90;;;;;;5013622;28;20042;-74
2023/04/28 06:11:11;;;;;;;10.18;6.18;;;6.50;99.90;;;;;;5014297;28;20502;-74
2023/04/28 06:13:36;;;;;;;10.93;5.97;;;6.80;99.90;;;;;;5014896;28;20124;-74
2023/04/28 06:16:03;;;;;;;10.13;6.38;;;6.90;99.90;;;;;;5014368;28;20049;-74
2023/04/28 06:18:31;;;;;;;9.95;5.90;;;6.80;99.90;;;;;;5013935;28;20490;-74
2023/04/28 06:20:57;;;;;;;8.77;5.95;;;6.80;99.90;;;;;;5013074;28;20050;-75
2023/04/28 06:23:23;;;;;;;9.23;5.65;;;7.00;99.90;;;;;;5014608;28;20092;-74
2023/04/28 06:25:48;;;;;;;10.32;6.63;;;6.90;99.90;;;;;;5014140;28;20050;-74
2023/04/28 06:28:14;;;;;;;11.32;7.07;;;6.90;99.90;;;;;;5014625;28;20041;-74
2023/04/28 06:30:40;;;;;;;9.60;6.10;;;6.90;99.90;;;;;;4996403;28;20056;-75
2023/04/28 06:33:06;;;;;;;11.70;5.93;;;7.10;99.90;;;;;;5014012;28;20042;-74
2023/04/28 06:35:35;;;;;;;10.30;6.45;;;7.00;99.90;;;;;;5012829;28;20049;-74
2023/04/28 06:38:02;;;;;;;9.27;5.68;;;7.30;99.90;;;;;;5013966;28;20161;-74
2023/04/28 06:40:28;;;;;;;9.15;6.22;;;7.40;99.90;;;;;;5013973;28;20042;-74
2023/04/28 06:42:54;;;;;;;12.88;5.78;;;7.20;99.90;;;;;;5012702;28;20072;-74
2023/04/28 06:45:20;;;;;;;11.93;6.78;;;7.20;99.90;;;;;;5012947;28;20398;-74
2023/04/28 06:47:46;;;;;;;10.20;5.95;;;7.20;99.90;;;;;;5012279;28;20050;-74
2023/04/28 06:50:11;;;;;;;10.82;6.07;;;7.20;99.90;;;;;;5012545;28;20050;-75
2023/04/28 06:52:40;;;;;;;8.90;5.45;;;7.30;99.90;;;;;;5014106;28;20083;-75
2023/04/28 06:55:08;;;;;;;10.18;6.32;;;7.40;99.90;;;;;;5013611;28;20058;-75
2023/04/28 06:57:34;;;;;;;10.93;6.70;;;7.40;99.90;;;;;;5013795;28;20129;-76
2023/04/28 07:00:00;;;;;;;9.25;5.47;;;7.50;99.90;;;;;;5013768;28;20050;-75
2023/04/28 07:02:26;;;;;;;10.63;6.32;;;7.50;99.90;;;;;;5013866;28;20045;-74
2023/04/28 07:04:51;;;;;;;10.85;6.97;;;7.70;99.90;;;;;;5013792;28;20149;-75
2023/04/28 07:07:17;;;;;;;10.23;5.70;;;7.60;99.90;;;;;;5013878;28;20087;-75
2023/04/28 07:09:43;;;;;;;10.27;5.63;;;7.50;99.90;;;;;;5013663;28;20053;-75
2023/04/28 07:12:08;;;;;;;9.23;6.30;;;7.60;99.90;;;;;;5013750;28;20137;-75
2023/04/28 07:14:34;;;;;;;11.48;6.07;;;7.50;99.90;;;;;;4996182;28;20426;-76
2023/04/28 07:17:00;;;;;;;9.93;5.82;;;7.70;99.90;;;;;;5012855;28;20054;-76
2023/04/28 07:19:26;;;;;;;10.98;6.15;;;7.70;99.90;;;;;;5013636;28;20042;-76
2023/04/28 07:21:52;;;;;;;10.35;5.78;;;7.90;99.90;;;;;;5013531;28;20482;-76
2023/04/28 07:24:17;;;;;;;10.68;6.70;;;7.70;99.90;;;;;;5012494;28;20061;-76
2023/04/28 07:26:43;;;;;;;10.55;6.68;;;8.10;99.90;;;;;;5012681;28;20038;-76
2023/04/28 07:29:12;;;;;;;11.45;6.20;;;7.90;99.90;;;;;;5013927;28;20046;-76
2023/04/28 07:31:38;;;;;;;10.30;6.05;;;7.90;99.90;;;;;;5012712;28;20058;-77
2023/04/28 07:34:03;;;;;;;10.55;6.40;;;7.90;99.90;;;;;;5013441;28;20046;-76
2023/04/28 07:36:29;;;;;;;9.10;5.60;;;8.00;99.90;;;;;;5013393;28;20057;-76
2023/04/28 07:38:55;;;;;;;9.93;6.13;;;8.10;99.90;;;;;;5012757;28;20042;-76
2023/04/28 07:41:22;;;;;;;10.00;5.90;;;8.10;99.90;;;;;;5013408;28;20057;-77
2023/04/28 07:43:48;;;;;;;9.23;6.40;;;8.00;99.90;;;;;;5017761;28;20482;-77
2023/04/28 07:46:14;;;;;;;8.38;5.25;;;8.20;99.90;;;;;;4979988;28;20056;-77
2023/04/28 07:48:40;;;;;;;10.07;6.10;;;8.10;99.90;;;;;;5012085;28;20130;-77
2023/04/28 07:51:05;;;;;;;9.02;5.78;;;8.20;99.90;;;;;;5012842;28;20054;-76
2023/04/28 07:53:31;;;;;;;11.52;5.95;;;8.20;99.90;;;;;;5013773;28;20057;-76
2023/04/28 07:55:57;;;;;;;10.43;6.10;;;8.30;99.90;;;;;;5016375;28;20057;-77
2023/04/28 07:58:22;;;;;;;9.52;6.00;;;8.50;99.90;;;;;;5012316;28;20038;-77
2023/04/28 08:00:48;;;;;;;8.88;5.88;;;8.60;99.90;;;;;;5016692;28;20042;-77
2023/04/28 08:03:14;;;;;;;10.52;6.25;;;8.50;99.90;;;;;;5017409;28;20046;-78
2023/04/28 08:05:40;;;;;;;11.93;5.97;;;8.50;99.90;;;;;;5016810;28;20450;-77
2023/04/28 08:08:06;;;;;;;10.25;6.43;;;8.60;99.90;;;;;;4999143;28;20053;-77
2023/04/28 08:10:31;;;;;;;9.98;6.60;;;8.50;99.90;;;;;;5016652;28;20160;-78
2023/04/28 08:12:58;;;;;;;9.23;5.75;;;8.50;99.90;;;;;;5015704;28;20117;-77
2023/04/28 08:15:24;;;;;;;6.68;5.22;;;8.50;99.90;;;;;;5015527;28;20041;-77
2023/04/28 08:17:51;;;;;;;9.52;6.40;;;8.40;99.90;;;;;;5016532;28;20056;-77
2023/04/28 08:20:18;;;;;;;10.43;6.30;;;8.50;99.90;;;;;;5017374;28;20049;-77
2023/04/28 08:22:45;;;;;;;10.23;6.45;;;8.50;99.90;;;;;;5016581;28;20045;-76
2023/04/28 08:25:11;;;;;;;10.88;6.10;;;8.50;99.90;;;;;;5015140;28;20046;-79
2023/04/28 08:27:39;;;;;;;10.13;6.28;;;8.60;99.90;;;;;;4998918;28;20054;-79
2023/04/28 08:30:08;;;;;;;9.50;6.15;;;8.60;99.90;;;;;;5015583;28;20042;-77
2023/04/28 08:32:35;;;;;;;9.57;5.25;;;8.70;99.90;;;;;;5015239;28;20050;-77
2023/04/28 08:35:00;;;;;;;10.93;6.10;;;8.90;99.90;;;;;;5016229;28;20508;-76
2023/04/28 08:37:26;;;;;;;9.30;6.25;;;8.90;99.90;;;;;;5015863;28;20050;-76
2023/04/28 08:40:00;;;;;;;9.23;6.13;;;8.90;99.90;;;;;;5016119;28;20045;-76
2023/04/28 08:42:30;;;;;;;9.40;5.38;;;9.00;99.90;;;;;;5015175;28;20058;-78
2023/04/28 08:44:58;;;;;;;11.90;6.28;;;9.10;99.90;;;;;;5016347;28;20049;-78
2023/04/28 08:47:32;;;;;;;10.88;6.30;;;9.10;99.90;;;;;;5016012;28;20046;-78
2023/04/28 08:50:06;;;;;;;8.48;5.85;;;9.20;99.90;;;;;;5015278;28;20042;-78
2023/04/28 08:52:32;;;;;;;9.52;6.47;;;9.20;99.90;;;;;;5015673;28;20064;-78
2023/04/28 08:55:01;;;;;;;8.80;5.90;;;9.30;99.90;;;;;;5014842;28;20107;-78
2023/04/28 08:57:29;;;;;;;8.52;5.75;;;9.30;99.90;;;;;;5015807;28;20061;-78
2023/04/28 08:59:55;;;;;;;9.32;5.82;;;9.40;99.90;;;;;;5014599;28;20053;-78
2023/04/28 09:02:21;;;;;;;9.90;6.90;;;9.40;99.90;;;;;;4998382;28;20076;-78
2023/04/28 09:04:47;;;;;;;9.65;5.78;;;9.40;99.90;;;;;;5015685;28;20186;-78
2023/04/28 09:07:13;;;;;;;8.73;6.00;;;9.40;99.90;;;;;;5015645;28;20136;-79
2023/04/28 09:09:44;;;;;;;9.63;5.88;;;9.40;99.90;;;;;;5015303;28;20167;-79
2023/04/28 09:12:10;;;;;;;12.43;6.07;;;9.40;99.90;;;;;;5015425;28;20099;-79
2023/04/28 09:14:37;;;;;;;6.93;5.65;;;9.50;99.90;;;;;;4982224;28;20049;-80
2023/04/28 09:17:12;;;;;;;8.32;6.10;;;9.50;99.90;;;;;;5013573;28;20493;-79
2023/04/28 09:19:41;;;;;;;12.02;6.35;;;9.50;99.90;;;;;;5015705;28;20049;-81
2023/04/28 09:22:07;;;;;;;9.93;5.90;;;9.50;99.90;;;;;;5015175;28;20041;-81
2023/04/28 09:24:41;;;;;;;8.13;5.22;;;9.60;99.90;;;;;;4998143;28;20045;-80
2023/04/28 09:27:10;;;;;;;9.98;6.10;;;9.70;99.90;;;;;;5015227;28;20054;-79
2023/04/28 09:29:37;;;;;;;10.40;6.55;;;9.70;99.90;;;;;;5014118;28;20088;-85
2023/04/28 09:32:16;;;;;;;11.48;7.07;;;9.90;99.90;;;;;;5014149;28;20119;-82
2023/04/28 09:34:47;;;;;;;10.68;6.35;;;10.00;99.90;;;;;;5014355;28;20124;-77
2023/04/28 09:37:21;;;;;;;11.68;7.13;;;10.00;99.90;;;;;;5015430;28;20132;-78
2023/04/28 09:39:51;;;;;;;10.35;6.93;;;10.00;99.90;;;;;;5014010;28;20050;-79
2023/04/28 09:42:37;;;;;;;10.73;7.05;;;10.00;99.90;;;;;;5015543;28;20143;-79
2023/04/28 09:45:07;;;;;;;9.40;6.38;;;9.90;99.90;;;;;;5014953;28;20056;-78
2023/04/28 09:47:36;;;;;;;13.05;6.60;;;10.00;99.90;;;;;;5014591;28;20049;-78
2023/04/28 09:50:10;;;;;;;10.50;6.60;;;10.00;99.90;;;;;;5013670;28;20046;-84
2023/04/28 09:52:36;;;;;;;11.20;6.55;;;10.10;99.90;;;;;;5015469;28;20080;-80
2023/04/28 09:55:05;;;;;;;10.80;6.65;;;10.30;99.90;;;;;;5015343;28;20055;-82
2023/04/28 09:57:32;;;;;;;8.65;6.72;;;10.30;99.90;;;;;;4997993;28;20057;-82
2023/04/28 10:00:00;;;;;;;11.73;7.30;;;10.30;99.90;;;;;;5013550;28;20077;-80
2023/04/28 10:02:27;;;;;;;10.65;6.70;;;10.40;99.90;;;;;;5014577;28;20096;-80
2023/04/28 10:04:52;;;;;;;13.23;7.32;;;10.60;99.90;;;;;;5015086;28;20092;-79
2023/04/28 10:07:20;;;;;;;10.80;7.07;;;10.70;99.90;;;;;;5013488;28;20089;-81
2023/04/28 10:09:50;;;;;;;9.63;6.93;;;10.80;99.90;;;;;;4996774;28;20046;-83
2023/04/28 10:12:20;;;;;;;10.63;7.05;;;10.90;99.90;;;;;;5015017;28;20068;-80
2023/04/28 10:14:53;;;;;;;11.52;6.75;;;11.10;99.90;;;;;;5015154;28;20447;-84
2023/04/28 10:17:20;;;;;;;12.02;6.68;;;11.20;99.90;;;;;;5014384;28;20053;-81
2023/04/28 10:19:49;;;;;;;8.02;7.05;;;11.20;99.90;;;;;;5014129;28;20049;-85
2023/04/28 10:22:33;;;;;;;10.27;6.00;;;11.30;99.90;;;;;;5013004;28;20217;-83
2023/04/28 10:25:11;;;;;;;9.60;6.68;;;11.40;99.90;;;;;;5014479;28;20455;-82
2023/04/28 10:27:45;;;;;;;11.40;6.95;;;11.50;99.90;;;;;;5014209;28;20057;-83
2023/04/28 10:30:20;;;;;;;11.13;7.10;;;11.60;99.90;;;;;;5013200;28;20045;-82
2023/04/28 10:32:46;;;;;;;8.85;7.00;;;11.80;99.90;;;;;;5013366;28;20136;-82
2023/04/28 10:35:24;;;;;;;11.40;7.13;;;11.90;99.90;;;;;;5013850;28;20505;-85
2023/04/28 10:38:12;;;;;;;10.60;7.15;;;11.90;99.90;;;;;;5015510;28;20069;-83
2023/04/28 10:40:43;;;;;;;10.02;7.63;;;12.10;99.90;;;;;;4997026;28;20466;-85
2023/04/28 10:43:13;;;;;;;10.45;6.57;;;12.10;99.90;;;;;;5013829;28;20050;-82
2023/04/28 10:45:48;;;;;;;11.52;6.82;;;12.30;99.90;;;;;;5013820;28;20148;-86
2023/04/28 10:48:15;;;;;;;9.32;7.18;;;12.40;99.90;;;;;;5013324;28;20077;-88
2023/04/28 10:51:02;;;;;;;9.65;6.80;;;12.60;99.90;;;;;;5012911;28;20054;-83
2023/04/28 10:53:49;;;;;;;10.15;6.90;;;12.60;99.90;;;;;;4996922;28;20057;-86
2023/04/28 10:56:18;;;;;;;8.02;6.38;;;12.60;99.90;;;;;;5013194;28;20050;-84
2023/04/28 10:58:54;;;;;;;10.68;7.05;;;12.80;99.90;;;;;;5015664;28;20046;-86
2023/04/28 11:01:20;;;;;;;9.32;6.88;;;12.80;99.90;;;;;;5012900;28;20074;-82
2023/04/28 11:03:46;;;;;;;10.23;7.38;;;12.80;99.90;;;;;;5014153;28;20073;-84
2023/04/28 11:08:51;;;;;;;10.73;7.05;;;12.80;99.90;;;;;;4996383;28;20061;-89
2023/04/28 11:11:19;;;;;;;13.27;8.25;;;12.70;99.90;;;;;;4996444;28;20068;-88
2023/04/28 11:13:46;;;;;;;10.13;7.22;;;12.70;99.90;;;;;;5013879;28;20092;-84
2023/04/28 11:16:15;;;;;;;10.70;7.15;;;12.70;99.90;;;;;;5018095;28;20107;-85
2023/04/28 11:18:51;;;;;;;9.00;6.97;;;12.60;99.90;;;;;;5014560;28;20061;-84
2023/04/28 11:21:21;;;;;;;9.57;6.82;;;12.60;99.90;;;;;;5013009;28;20478;-88
2023/04/28 11:23:47;;;;;;;9.07;7.25;;;12.60;99.90;;;;;;5013640;28;20049;-86
2023/04/28 11:26:14;;;;;;;10.93;7.43;;;12.60;99.90;;;;;;5012061;28;20545;-86
2023/04/28 11:28:47;;;;;;;8.93;7.05;;;12.60;99.90;;;;;;5013309;28;20518;-85
2023/04/28 11:31:17;;;;;;;8.35;7.43;;;12.50;99.90;;;;;;5012343;28;20505;-89
2023/04/28 11:33:45;;;;;;;9.13;7.70;;;12.50;99.90;;;;;;5013799;28;20046;-86
2023/04/28 11:36:25;;;;;;;9.43;7.50;;;12.40;99.90;;;;;;5017905;28;20053;-89
2023/04/28 11:38:51;;;;;;;11.82;8.32;;;12.30;99.90;;;;;;5017312;28;20065;-81
2023/04/28 11:41:17;;;;;;;13.38;8.65;;;12.30;99.90;;;;;;5017091;28;20045;-82
2023/04/28 11:43:42;;;;;;;11.27;8.68;;;12.20;99.90;;;;;;4999986;28;20042;-82
2023/04/28 11:46:08;;;;;;;11.15;8.52;;;12.20;99.90;;;;;;5016986;28;20061;-82
2023/04/28 11:48:34;;;;;;;10.65;8.63;;;12.10;99.90;;;;;;5017943;28;20159;-82
2023/04/28 11:51:00;;;;;;;12.85;9.32;;;12.00;99.90;;;;;;5016767;28;20494;-83
2023/04/28 11:53:45;;;;;;;10.65;9.02;;;11.90;99.90;;;;;;4999731;28;20524;-82
2023/04/28 11:56:12;;;;;;;10.30;9.10;;;11.80;99.90;;;;;;5016971;28;20133;-82
2023/04/28 11:58:38;;;;;;;12.00;8.85;;;11.80;99.90;;;;;;5016938;28;20054;-82
2023/04/28 12:01:08;;;;;;;12.05;9.05;;;11.80;99.90;;;;;;5016837;28;20046;-77
2023/04/28 12:03:44;;;;;;;11.90;8.98;;;11.80;99.90;;;;;;5015463;28;20050;-89
2023/04/28 12:06:10;;;;;;;15.05;10.40;;;11.80;99.90;;;;;;5015524;28;20049;-81
2023/04/28 12:08:36;;;;;;;14.65;11.27;;;11.80;99.90;;;;;;5015428;28;20042;-81
2023/04/28 12:11:09;;;;;;;16.45;10.43;;;11.90;99.90;;;;;;5015398;28;20057;-88
2023/04/28 12:13:37;;;;;;;13.32;10.57;;;12.00;99.90;;;;;;5015605;28;20125;-86
2023/04/28 12:16:06;;;;;;;11.75;8.90;;;11.90;99.90;;;;;;5016439;28;20060;-90
2023/04/28 12:18:35;;;;;;;10.93;8.75;;;11.90;99.90;;;;;;5015348;28;20057;-85
2023/04/28 12:21:02;;;;;;;12.68;9.07;;;12.00;99.90;;;;;;5016049;28;20136;-81
2023/04/28 12:23:35;;;;;;;12.60;9.13;;;12.00;99.90;;;;;;5015063;28;20081;-86
2023/04/28 12:26:01;;;;;;;;;;;12.10;99.90;;;;;;5016734;28;20347;-87
2023/04/28 12:28:37;;;;;;;14.18;9.65;;;12.00;99.90;;;;;;5014992;28;19968;-85
2023/04/28 12:31:05;;;;;;;10.98;8.88;;;11.40;99.90;;;;;;5015458;28;20042;-88
2023/04/28 12:33:36;;;;;;;12.40;8.73;;;11.90;99.90;;;;;;5016004;28;20045;-86
2023/04/28 12:36:02;;;;;;;13.38;9.55;;;12.00;99.90;;;;;;5016114;28;20060;-90
2023/04/28 12:38:28;;;;;;;10.68;8.63;;;12.10;99.90;;;;;;5015044;28;20092;-92
2023/04/28 12:40:55;;;;;;;12.77;9.30;;;12.20;99.90;;;;;;4983585;28;20049;-90
2023/04/28 12:43:22;;;;;;;11.98;8.93;;;12.30;99.90;;;;;;5016046;28;20045;-81
2023/04/28 12:45:49;;;;;;;13.63;8.90;;;12.30;99.90;;;;;;5015638;28;20073;-86
2023/04/28 12:48:15;;;;;;;14.23;9.45;;;12.30;99.90;;;;;;5015715;28;20088;-80
2023/04/28 12:50:41;;;;;;;11.75;8.93;;;12.30;99.90;;;;;;5016025;28;20089;-84